M/T Vemaoil Xi — 9HWD7 — position and weather

sailwx.info

Track history (hours):
 
Tides and Currents Weather Stations Pressure Air Temp Water Temp Dewpoint Dewpoint Depression Visibility Wind Speed Wind Dir Waves Ship Positions

M/T Vemaoil Xi

Last reported at 2014-Oct-19 06:26 UTC. Time now 2014-Nov-01 04:51 UTC.
Position N 35°49' E 014°35'.
Warning: this ship's position is 12 days out of date.

Length 105 m; draft 7 m.

Type: Tanker. MMSI: 215631000.

Date/timePositionNaut miles runAvg speedWind from/ knotsBaromVisibWave heightAir tempDewpointWater temp
2014-Oct-19 06:26N 35°49' E 014°35'0 0.0
2014-Oct-19 04:17N 35°49' E 014°35'0 0.0
2014-Oct-19 03:23N 35°49' E 014°35'0 0.0
2014-Oct-19 02:29N 35°49' E 014°35'1 0.2
2014-Oct-18 22:25N 35°49' E 014°34'1 0.3
2014-Oct-18 17:30N 35°49' E 014°33'0 0.0
2014-Oct-18 12:21N 35°49' E 014°33'0 0.0
2014-Oct-18 11:30N 35°49' E 014°33'0 0.0
2014-Oct-18 10:33N 35°49' E 014°33'0 0.0
2014-Oct-18 09:33N 35°49' E 014°33'0 0.0
2014-Oct-18 06:33N 35°49' E 014°33'0 0.4
2014-Oct-18 05:33N 35°49' E 014°33'0 0.1
2014-Oct-18 03:33N 35°49' E 014°33'0 0.0
2014-Oct-18 02:33N 35°49' E 014°33'0 0.0
2014-Oct-18 01:33N 35°49' E 014°33'0 0.0
2014-Oct-18 00:30N 35°49' E 014°33'0 0.0
2014-Oct-17 23:33N 35°49' E 014°33'2 1.8
2014-Oct-17 22:33N 35°49' E 014°35'0 0.1
2014-Oct-17 21:30N 35°49' E 014°35'0 0.0
2014-Oct-17 20:18N 35°49' E 014°35'0 0.0
2014-Oct-17 19:09N 35°49' E 014°35'0 0.0
2014-Oct-17 18:27N 35°49' E 014°35'0 0.0
2014-Oct-17 17:30N 35°49' E 014°35'0 0.0
2014-Oct-17 16:33N 35°49' E 014°35'1 0.5
2014-Oct-17 15:32N 35°49' E 014°35'5 4.7
2014-Oct-17 14:33N 35°51' E 014°41'5 5.1
2014-Oct-17 13:32N 35°53' E 014°46'0 0.1
2014-Oct-17 12:32N 35°53' E 014°46'0 0.0
2014-Oct-17 11:32N 35°53' E 014°47'0 0.0
2014-Oct-17 10:32N 35°53' E 014°47'0 0.0
2014-Oct-17 08:08N 35°53' E 014°46'0 0.0
2014-Oct-17 06:32N 35°53' E 014°46'0 0.0
2014-Oct-17 04:08N 35°53' E 014°46'0 0.0
2014-Oct-17 03:32N 35°53' E 014°47'0 0.0
2014-Oct-17 02:32N 35°53' E 014°46'2 1.7
2014-Oct-17 01:31N 35°53' E 014°45'0 0.1
2014-Oct-17 00:28N 35°52' E 014°45'0 0.0
2014-Oct-16 23:31N 35°52' E 014°45'0 0.0
2014-Oct-16 22:31N 35°52' E 014°45'0 0.0
2014-Oct-16 21:31N 35°52' E 014°45'0 0.0
2014-Oct-16 20:25N 35°52' E 014°45'0 0.0
2014-Oct-16 19:31N 35°52' E 014°45'0 0.0
2014-Oct-16 18:31N 35°52' E 014°45'0 0.0
2014-Oct-16 17:28N 35°52' E 014°45'0 0.0
2014-Oct-16 16:07N 35°52' E 014°45'0 0.0
2014-Oct-16 15:28N 35°52' E 014°45'0 0.4
2014-Oct-16 14:30N 35°53' E 014°45'0 0.0
2014-Oct-16 13:06N 35°53' E 014°45'0 0.0
2014-Oct-16 12:18N 35°53' E 014°45'0 0.0
2014-Oct-16 11:33N 35°53' E 014°45'0 0.0
2014-Oct-16 10:33N 35°53' E 014°45'0 0.0
2014-Oct-16 09:27N 35°53' E 014°45'0 0.0
2014-Oct-16 08:12N 35°53' E 014°45'0 0.0
2014-Oct-16 07:33N 35°53' E 014°45'8 5.3
2014-Oct-16 06:05N 35°49' E 014°36'1 0.0
2014-Oct-15 10:15N 35°50' E 014°36'1 1.3
2014-Oct-15 09:33N 35°51' E 014°36'0 0.0
2014-Oct-15 08:33N 35°51' E 014°36'0 0.0
2014-Oct-15 07:33N 35°51' E 014°36'0 0.0
2014-Oct-15 06:33N 35°51' E 014°36'0 0.0
2014-Oct-15 05:33N 35°51' E 014°36'0 0.0
2014-Oct-15 04:33N 35°51' E 014°36'0 0.0
2014-Oct-15 03:33N 35°51' E 014°36'0 0.0
2014-Oct-15 02:33N 35°51' E 014°36'0 0.0
2014-Oct-15 01:33N 35°51' E 014°36'0 0.0
2014-Oct-15 00:33N 35°51' E 014°36'0 0.0
2014-Oct-14 23:33N 35°51' E 014°36'0 0.0
2014-Oct-14 22:33N 35°51' E 014°36'0 0.0
2014-Oct-14 21:33N 35°51' E 014°36'0 0.0
2014-Oct-14 20:33N 35°51' E 014°36'0 0.0
2014-Oct-14 19:33N 35°51' E 014°36'0 0.2
2014-Oct-14 18:33N 35°51' E 014°36'6 6.2
2014-Oct-14 17:33N 35°52' E 014°44'4 4.1
2014-Oct-14 16:31N 35°54' E 014°48'0 0.0
2014-Oct-14 15:31N 35°54' E 014°48'0 0.0
2014-Oct-14 14:31N 35°54' E 014°48'0 0.0
2014-Oct-14 13:19N 35°54' E 014°48'0 0.0
2014-Oct-14 12:31N 35°54' E 014°48'0 0.0
2014-Oct-14 11:31N 35°54' E 014°48'0 0.4
2014-Oct-14 10:32N 35°54' E 014°49'7 7.0
2014-Oct-14 09:33N 35°51' E 014°41'7 6.9
2014-Oct-14 08:33N 35°49' E 014°33'0 0.3
2014-Oct-14 07:30N 35°49' E 014°33'2 0.1
2014-Oct-13 05:33N 35°49' E 014°35'0 0.0
2014-Oct-13 04:33N 35°49' E 014°35'0 0.0
2014-Oct-13 03:33N 35°49' E 014°35'0 0.0
2014-Oct-13 02:30N 35°49' E 014°35'0 0.0
2014-Oct-13 01:33N 35°49' E 014°35'0 0.0
2014-Oct-13 00:33N 35°49' E 014°35'0 0.0
2014-Oct-12 23:33N 35°49' E 014°35'0 0.0
2014-Oct-12 22:33N 35°49' E 014°35'4 3.8
2014-Oct-12 21:33N 35°50' E 014°40'5 4.7
2014-Oct-12 20:32N 35°53' E 014°45'0 0.0
2014-Oct-12 19:29N 35°53' E 014°45'0 0.0
2014-Oct-12 18:32N 35°53' E 014°45'0 0.0
2014-Oct-12 17:32N 35°53' E 014°45'0 0.0
2014-Oct-12 16:29N 35°53' E 014°45'0 0.0
2014-Oct-12 15:29N 35°53' E 014°45'5 4.9
2014-Oct-12 14:26N 35°50' E 014°40'4 1.7
2014-Oct-12 12:21N 35°49' E 014°35'0 0.0
2014-Oct-12 11:09N 35°49' E 014°35'0 0.0
2014-Oct-12 09:21N 35°49' E 014°35'0 0.0
2014-Oct-12 08:24N 35°49' E 014°35'0 0.0
2014-Oct-12 07:30N 35°49' E 014°35'0 0.0
2014-Oct-12 06:30N 35°49' E 014°35'0 0.0
2014-Oct-12 05:15N 35°49' E 014°35'0 0.0
2014-Oct-12 03:30N 35°49' E 014°35'0 0.0
2014-Oct-12 02:12N 35°49' E 014°35'0 0.0
2014-Oct-12 01:30N 35°49' E 014°35'0 0.0
2014-Oct-12 00:24N 35°49' E 014°35'0 0.0
2014-Oct-11 23:30N 35°49' E 014°35'0 0.0
2014-Oct-11 22:27N 35°49' E 014°35'0 0.0
2014-Oct-11 21:06N 35°49' E 014°35'0 0.0
2014-Oct-11 14:12N 35°49' E 014°35'0 0.0
2014-Oct-11 13:06N 35°49' E 014°35'0 0.0
2014-Oct-11 12:21N 35°49' E 014°35'0 0.0
2014-Oct-10 10:26N 35°49' E 014°35'0 0.0
2014-Oct-10 07:10N 35°49' E 014°35'0 0.0
2014-Oct-10 06:24N 35°49' E 014°35'0 0.0
2014-Oct-10 05:07N 35°49' E 014°35'0 0.0
2014-Oct-10 04:33N 35°49' E 014°35'  
Track history (hours):
 
Tides and Currents Weather Stations Pressure Air Temp Water Temp Dewpoint Dewpoint Depression Visibility Wind Speed Wind Dir Waves Ship Positions

M/T Vemaoil Xi

Last reported at 2014-Oct-19 06:26 UTC. Time now 2014-Nov-01 04:51 UTC.
Position N 35°49' E 014°35'.
Warning: this ship's position is 12 days out of date.

Length 105 m; draft 7 m.

Type: Tanker. MMSI: 215631000.

Date/timePositionNaut miles runAvg speedWind from/ knotsBaromVisibWave heightAir tempDewpointWater temp
2014-Oct-19 06:26N 35°49' E 014°35'0 0.0
2014-Oct-19 04:17N 35°49' E 014°35'0 0.0
2014-Oct-19 03:23N 35°49' E 014°35'0 0.0
2014-Oct-19 02:29N 35°49' E 014°35'1 0.2
2014-Oct-18 22:25N 35°49' E 014°34'1 0.3
2014-Oct-18 17:30N 35°49' E 014°33'0 0.0
2014-Oct-18 12:21N 35°49' E 014°33'0 0.0
2014-Oct-18 11:30N 35°49' E 014°33'0 0.0
2014-Oct-18 10:33N 35°49' E 014°33'0 0.0
2014-Oct-18 09:33N 35°49' E 014°33'0 0.0
2014-Oct-18 06:33N 35°49' E 014°33'0 0.4
2014-Oct-18 05:33N 35°49' E 014°33'0 0.1
2014-Oct-18 03:33N 35°49' E 014°33'0 0.0
2014-Oct-18 02:33N 35°49' E 014°33'0 0.0
2014-Oct-18 01:33N 35°49' E 014°33'0 0.0
2014-Oct-18 00:30N 35°49' E 014°33'0 0.0
2014-Oct-17 23:33N 35°49' E 014°33'2 1.8
2014-Oct-17 22:33N 35°49' E 014°35'0 0.1
2014-Oct-17 21:30N 35°49' E 014°35'0 0.0
2014-Oct-17 20:18N 35°49' E 014°35'0 0.0
2014-Oct-17 19:09N 35°49' E 014°35'0 0.0
2014-Oct-17 18:27N 35°49' E 014°35'0 0.0
2014-Oct-17 17:30N 35°49' E 014°35'0 0.0
2014-Oct-17 16:33N 35°49' E 014°35'1 0.5
2014-Oct-17 15:32N 35°49' E 014°35'5 4.7
2014-Oct-17 14:33N 35°51' E 014°41'5 5.1
2014-Oct-17 13:32N 35°53' E 014°46'0 0.1
2014-Oct-17 12:32N 35°53' E 014°46'0 0.0
2014-Oct-17 11:32N 35°53' E 014°47'0 0.0
2014-Oct-17 10:32N 35°53' E 014°47'0 0.0
2014-Oct-17 08:08N 35°53' E 014°46'0 0.0
2014-Oct-17 06:32N 35°53' E 014°46'0 0.0
2014-Oct-17 04:08N 35°53' E 014°46'0 0.0
2014-Oct-17 03:32N 35°53' E 014°47'0 0.0
2014-Oct-17 02:32N 35°53' E 014°46'2 1.7
2014-Oct-17 01:31N 35°53' E 014°45'0 0.1
2014-Oct-17 00:28N 35°52' E 014°45'0 0.0
2014-Oct-16 23:31N 35°52' E 014°45'0 0.0
2014-Oct-16 22:31N 35°52' E 014°45'0 0.0
2014-Oct-16 21:31N 35°52' E 014°45'0 0.0
2014-Oct-16 20:25N 35°52' E 014°45'0 0.0
2014-Oct-16 19:31N 35°52' E 014°45'0 0.0
2014-Oct-16 18:31N 35°52' E 014°45'0 0.0
2014-Oct-16 17:28N 35°52' E 014°45'0 0.0
2014-Oct-16 16:07N 35°52' E 014°45'0 0.0
2014-Oct-16 15:28N 35°52' E 014°45'0 0.4
2014-Oct-16 14:30N 35°53' E 014°45'0 0.0
2014-Oct-16 13:06N 35°53' E 014°45'0 0.0
2014-Oct-16 12:18N 35°53' E 014°45'0 0.0
2014-Oct-16 11:33N 35°53' E 014°45'0 0.0
2014-Oct-16 10:33N 35°53' E 014°45'0 0.0
2014-Oct-16 09:27N 35°53' E 014°45'0 0.0
2014-Oct-16 08:12N 35°53' E 014°45'0 0.0
2014-Oct-16 07:33N 35°53' E 014°45'8 5.3
2014-Oct-16 06:05N 35°49' E 014°36'1 0.0
2014-Oct-15 10:15N 35°50' E 014°36'1 1.3
2014-Oct-15 09:33N 35°51' E 014°36'0 0.0
2014-Oct-15 08:33N 35°51' E 014°36'0 0.0
2014-Oct-15 07:33N 35°51' E 014°36'0 0.0
2014-Oct-15 06:33N 35°51' E 014°36'0 0.0
2014-Oct-15 05:33N 35°51' E 014°36'0 0.0
2014-Oct-15 04:33N 35°51' E 014°36'0 0.0
2014-Oct-15 03:33N 35°51' E 014°36'0 0.0
2014-Oct-15 02:33N 35°51' E 014°36'0 0.0
2014-Oct-15 01:33N 35°51' E 014°36'0 0.0
2014-Oct-15 00:33N 35°51' E 014°36'0 0.0
2014-Oct-14 23:33N 35°51' E 014°36'0 0.0
2014-Oct-14 22:33N 35°51' E 014°36'0 0.0
2014-Oct-14 21:33N 35°51' E 014°36'0 0.0
2014-Oct-14 20:33N 35°51' E 014°36'0 0.0
2014-Oct-14 19:33N 35°51' E 014°36'0 0.2
2014-Oct-14 18:33N 35°51' E 014°36'6 6.2
2014-Oct-14 17:33N 35°52' E 014°44'4 4.1
2014-Oct-14 16:31N 35°54' E 014°48'0 0.0
2014-Oct-14 15:31N 35°54' E 014°48'0 0.0
2014-Oct-14 14:31N 35°54' E 014°48'0 0.0
2014-Oct-14 13:19N 35°54' E 014°48'0 0.0
2014-Oct-14 12:31N 35°54' E 014°48'0 0.0
2014-Oct-14 11:31N 35°54' E 014°48'0 0.4
2014-Oct-14 10:32N 35°54' E 014°49'7 7.0
2014-Oct-14 09:33N 35°51' E 014°41'7 6.9
2014-Oct-14 08:33N 35°49' E 014°33'0 0.3
2014-Oct-14 07:30N 35°49' E 014°33'2 0.1
2014-Oct-13 05:33N 35°49' E 014°35'0 0.0
2014-Oct-13 04:33N 35°49' E 014°35'0 0.0
2014-Oct-13 03:33N 35°49' E 014°35'0 0.0
2014-Oct-13 02:30N 35°49' E 014°35'0 0.0
2014-Oct-13 01:33N 35°49' E 014°35'0 0.0
2014-Oct-13 00:33N 35°49' E 014°35'0 0.0
2014-Oct-12 23:33N 35°49' E 014°35'0 0.0
2014-Oct-12 22:33N 35°49' E 014°35'4 3.8
2014-Oct-12 21:33N 35°50' E 014°40'5 4.7
2014-Oct-12 20:32N 35°53' E 014°45'0 0.0
2014-Oct-12 19:29N 35°53' E 014°45'0 0.0
2014-Oct-12 18:32N 35°53' E 014°45'0 0.0
2014-Oct-12 17:32N 35°53' E 014°45'0 0.0
2014-Oct-12 16:29N 35°53' E 014°45'0 0.0
2014-Oct-12 15:29N 35°53' E 014°45'5 4.9
2014-Oct-12 14:26N 35°50' E 014°40'4 1.7
2014-Oct-12 12:21N 35°49' E 014°35'0 0.0
2014-Oct-12 11:09N 35°49' E 014°35'0 0.0
2014-Oct-12 09:21N 35°49' E 014°35'0 0.0
2014-Oct-12 08:24N 35°49' E 014°35'0 0.0
2014-Oct-12 07:30N 35°49' E 014°35'0 0.0
2014-Oct-12 06:30N 35°49' E 014°35'0 0.0
2014-Oct-12 05:15N 35°49' E 014°35'0 0.0
2014-Oct-12 03:30N 35°49' E 014°35'0 0.0
2014-Oct-12 02:12N 35°49' E 014°35'0 0.0
2014-Oct-12 01:30N 35°49' E 014°35'0 0.0
2014-Oct-12 00:24N 35°49' E 014°35'0 0.0
2014-Oct-11 23:30N 35°49' E 014°35'0 0.0
2014-Oct-11 22:27N 35°49' E 014°35'0 0.0
2014-Oct-11 21:06N 35°49' E 014°35'0 0.0
2014-Oct-11 14:12N 35°49' E 014°35'0 0.0
2014-Oct-11 13:06N 35°49' E 014°35'0 0.0
2014-Oct-11 12:21N 35°49' E 014°35'0 0.0
2014-Oct-10 10:26N 35°49' E 014°35'0 0.0
2014-Oct-10 07:10N 35°49' E 014°35'0 0.0
2014-Oct-10 06:24N 35°49' E 014°35'0 0.0
2014-Oct-10 05:07N 35°49' E 014°35'0 0.0
2014-Oct-10 04:33N 35°49' E 014°35'  

Dump ship's entire track history